createdAt,value
2022-10-26T00:01:18.508Z,11.65
2022-10-26T00:03:46.984Z,12.38
2022-10-26T00:06:20.258Z,13.93
2022-10-26T00:08:48.392Z,12.55
2022-10-26T00:11:16.754Z,18.10
2022-10-26T00:13:45.595Z,15.23
2022-10-26T00:16:17.996Z,13.30
2022-10-26T00:18:45.847Z,14.52
2022-10-26T00:21:13.838Z,11.38
2022-10-26T00:23:41.417Z,14.25
2022-10-26T00:26:09.798Z,12.57
2022-10-26T00:28:37.431Z,10.20
2022-10-26T00:31:09.095Z,12.25
2022-10-26T00:33:36.613Z,12.30
2022-10-26T00:36:04.423Z,11.15
2022-10-26T00:38:32.037Z,11.30
2022-10-26T00:40:59.719Z,9.52
2022-10-26T00:43:27.279Z,8.70
2022-10-26T00:45:57.215Z,12.43
2022-10-26T00:48:32.638Z,12.35
2022-10-26T00:51:03.386Z,13.80
2022-10-26T00:53:32.760Z,9.27
2022-10-26T00:56:01.465Z,12.02
2022-10-26T00:58:29.362Z,11.35
2022-10-26T01:00:56.926Z,9.90
2022-10-26T01:03:28.164Z,11.55
2022-10-26T01:05:57.553Z,11.15
2022-10-26T01:08:28.205Z,9.27
2022-10-26T01:10:58.048Z,15.13
2022-10-26T01:13:28.413Z,12.82
2022-10-26T01:16:23.542Z,11.50
2022-10-26T01:19:09.264Z,15.25
2022-10-26T01:21:59.340Z,9.23
2022-10-26T01:24:58.173Z,10.57
2022-10-26T01:27:29.958Z,12.55
2022-10-26T01:30:20.669Z,10.05
2022-10-26T01:33:14.529Z,10.68
2022-10-26T01:35:48.111Z,10.77
2022-10-26T01:38:22.969Z,9.60
2022-10-26T01:41:00.171Z,9.35
2022-10-26T01:43:32.016Z,10.38
2022-10-26T01:46:02.013Z,9.45
2022-10-26T01:48:30.192Z,9.68
2022-10-26T01:50:58.267Z,10.68
2022-10-26T01:53:28.500Z,7.75
2022-10-26T01:55:56.455Z,8.90
2022-10-26T01:58:39.649Z,9.20
2022-10-26T02:01:25.882Z,9.48
2022-10-26T02:04:15.282Z,9.50
2022-10-26T02:07:08.591Z,11.65
2022-10-26T02:09:59.777Z,10.48
2022-10-26T02:12:48.894Z,11.80
2022-10-26T02:15:31.284Z,10.27
2022-10-26T02:18:05.814Z,11.30
2022-10-26T02:20:44.059Z,9.25
2022-10-26T02:23:13.625Z,11.90
2022-10-26T02:25:47.587Z,9.43
2022-10-26T02:28:20.610Z,11.45
2022-10-26T02:30:52.428Z,12.80
2022-10-26T02:33:21.693Z,9.38
2022-10-26T02:35:52.842Z,12.25
2022-10-26T02:38:23.190Z,10.10
2022-10-26T02:40:52.306Z,10.90
2022-10-26T02:43:22.154Z,7.63
2022-10-26T02:45:56.461Z,10.50
2022-10-26T02:48:24.329Z,9.30
2022-10-26T02:51:09.505Z,10.18
2022-10-26T02:54:10.088Z,12.32
2022-10-26T02:57:02.971Z,9.57
2022-10-26T02:59:35.402Z,10.43
2022-10-26T03:02:04.471Z,10.65
2022-10-26T03:04:33.976Z,10.52
2022-10-26T03:07:02.173Z,11.10
2022-10-26T03:09:29.801Z,8.88
2022-10-26T03:11:57.236Z,10.05
2022-10-26T03:14:24.766Z,10.13
2022-10-26T03:19:24.742Z,8.77
2022-10-26T03:21:52.161Z,9.85
2022-10-26T03:24:19.642Z,10.05
2022-10-26T03:26:47.107Z,11.15
2022-10-26T03:29:14.601Z,11.90
2022-10-26T03:31:42.097Z,11.10
2022-10-26T03:34:09.640Z,11.05
2022-10-26T03:36:37.204Z,11.68
2022-10-26T03:39:04.713Z,8.98
2022-10-26T03:41:32.301Z,10.77
2022-10-26T03:43:59.729Z,9.10
2022-10-26T03:46:27.172Z,9.27
2022-10-26T03:48:54.792Z,9.55
2022-10-26T03:51:22.295Z,9.95
2022-10-26T03:53:49.825Z,7.97
2022-10-26T03:56:17.242Z,9.32
2022-10-26T03:58:44.738Z,12.30
2022-10-26T04:01:12.302Z,7.38
2022-10-26T04:03:39.862Z,10.90
2022-10-26T04:06:07.489Z,8.20
2022-10-26T04:08:34.943Z,7.32
2022-10-26T04:11:04.596Z,9.85
2022-10-26T04:13:32.951Z,10.07
2022-10-26T04:16:00.576Z,9.52
2022-10-26T04:18:28.131Z,8.50
2022-10-26T04:20:55.732Z,7.70
2022-10-26T04:23:23.190Z,10.93
2022-10-26T04:25:50.731Z,9.55
2022-10-26T04:28:18.263Z,8.70
2022-10-26T04:30:47.923Z,10.60
2022-10-26T04:33:15.578Z,12.30
2022-10-26T04:35:43.094Z,12.07
2022-10-26T04:38:10.750Z,16.00
2022-10-26T04:40:38.228Z,10.95
2022-10-26T04:43:06.208Z,10.25
2022-10-26T04:45:34.130Z,11.90
2022-10-26T04:48:08.025Z,7.88
2022-10-26T04:50:36.314Z,11.35
2022-10-26T04:53:11.816Z,8.13
2022-10-26T04:55:39.363Z,9.07
2022-10-26T04:58:07.328Z,9.80
2022-10-26T05:00:35.168Z,8.15
2022-10-26T05:03:04.660Z,10.93
2022-10-26T05:05:34.652Z,10.40
2022-10-26T05:08:02.380Z,11.93
2022-10-26T05:10:30.193Z,7.90
2022-10-26T05:13:00.115Z,11.02
2022-10-26T05:15:28.781Z,8.50
2022-10-26T05:18:05.473Z,10.30
2022-10-26T05:20:35.292Z,7.68
2022-10-26T05:23:10.473Z,7.95
2022-10-26T05:25:38.584Z,11.38
2022-10-26T05:28:11.782Z,12.15
2022-10-26T05:30:40.871Z,8.27
2022-10-26T05:33:10.446Z,7.75
2022-10-26T05:35:38.726Z,8.50
2022-10-26T05:38:10.640Z,13.98
2022-10-26T05:40:38.186Z,14.23
2022-10-26T05:43:05.712Z,11.00
2022-10-26T05:45:33.146Z,10.55
2022-10-26T05:48:02.771Z,13.07
2022-10-26T05:50:30.726Z,14.82
2022-10-26T05:52:58.208Z,15.18
2022-10-26T05:55:26.207Z,19.75
2022-10-26T05:57:53.906Z,10.65
2022-10-26T06:00:24.381Z,11.93
2022-10-26T06:03:07.582Z,18.33
2022-10-26T06:05:56.060Z,11.70
2022-10-26T06:08:26.714Z,11.25
2022-10-26T06:10:55.733Z,13.43
2022-10-26T06:13:23.437Z,14.88
2022-10-26T06:16:10.895Z,11.45
2022-10-26T06:19:01.068Z,14.45
2022-10-26T06:21:47.607Z,12.35
2022-10-26T06:24:30.122Z,11.52
2022-10-26T06:27:03.706Z,12.68
2022-10-26T06:29:54.613Z,12.53
2022-10-26T06:32:25.032Z,11.63
2022-10-26T06:35:04.879Z,12.20
2022-10-26T06:37:35.955Z,14.98
2022-10-26T06:40:05.072Z,14.45
2022-10-26T06:42:32.921Z,12.30
2022-10-26T06:45:00.692Z,14.80
2022-10-26T06:47:42.845Z,10.88
2022-10-26T06:50:34.544Z,13.32
2022-10-26T06:53:14.175Z,14.43
2022-10-26T06:55:47.586Z,12.07
2022-10-26T06:58:18.499Z,14.30
2022-10-26T07:00:49.745Z,16.92
2022-10-26T07:03:17.656Z,16.80
2022-10-26T07:05:46.179Z,19.65
2022-10-26T07:08:13.913Z,20.25
2022-10-26T07:10:42.804Z,15.43
2022-10-26T07:13:11.394Z,13.95
2022-10-26T07:15:40.566Z,9.30
2022-10-26T07:18:08.298Z,9.05
2022-10-26T07:20:37.993Z,7.53
2022-10-26T07:23:11.462Z,10.80
2022-10-26T07:25:40.555Z,7.60
2022-10-26T07:28:10.547Z,8.07
2022-10-26T07:30:39.817Z,6.35
2022-10-26T07:33:13.308Z,6.38
2022-10-26T07:35:41.018Z,8.02
2022-10-26T07:38:08.976Z,7.90
2022-10-26T07:40:38.159Z,4.80
2022-10-26T07:43:05.882Z,7.28
2022-10-26T07:45:33.577Z,5.90
2022-10-26T07:48:01.213Z,7.38
2022-10-26T07:50:29.524Z,7.43
2022-10-26T07:52:58.937Z,10.32
2022-10-26T07:55:27.667Z,8.45
2022-10-26T07:57:56.844Z,8.25
2022-10-26T08:00:25.742Z,12.32
2022-10-26T08:02:53.980Z,9.95
2022-10-26T08:05:21.514Z,10.38
2022-10-26T08:07:49.464Z,9.65
2022-10-26T08:10:17.608Z,12.10
2022-10-26T08:12:45.089Z,12.85
2022-10-26T08:15:12.690Z,10.68
2022-10-26T08:17:40.181Z,9.60
2022-10-26T08:20:11.264Z,14.20
2022-10-26T08:22:38.692Z,14.48
2022-10-26T08:25:06.483Z,15.60
2022-10-26T08:27:33.976Z,10.75
2022-10-26T08:30:01.560Z,13.20
2022-10-26T08:32:29.150Z,14.40
2022-10-26T08:34:56.730Z,15.35
2022-10-26T08:37:24.283Z,14.45
2022-10-26T08:39:54.655Z,16.40
2022-10-26T08:42:31.694Z,13.43
2022-10-26T08:45:28.769Z,13.68
2022-10-26T08:48:06.531Z,13.40
2022-10-26T08:50:45.419Z,16.65
2022-10-26T08:53:58.922Z,14.25
2022-10-26T08:56:29.116Z,13.45
2022-10-26T08:59:05.865Z,15.15
2022-10-26T09:01:34.468Z,14.50
2022-10-26T09:04:04.155Z,15.43
2022-10-26T09:06:57.964Z,17.17
2022-10-26T09:12:23.489Z,14.82
2022-10-26T09:15:12.320Z,15.80
2022-10-26T09:17:51.810Z,14.68
2022-10-26T09:20:38.012Z,16.95
2022-10-26T09:23:24.674Z,15.98
2022-10-26T09:25:59.869Z,17.40
2022-10-26T09:28:30.520Z,14.43
2022-10-26T09:31:00.944Z,14.13
2022-10-26T09:33:33.591Z,17.13
2022-10-26T09:36:11.906Z,14.02
2022-10-26T09:39:19.195Z,14.45
2022-10-26T09:41:55.924Z,15.82
2022-10-26T09:44:33.483Z,14.73
2022-10-26T09:47:07.078Z,16.27
2022-10-26T09:49:44.684Z,17.63
2022-10-26T09:54:45.222Z,18.00
2022-10-26T09:57:20.054Z,19.58
2022-10-26T09:59:49.995Z,16.73
2022-10-26T10:02:39.939Z,15.32
2022-10-26T10:08:27.499Z,21.15
2022-10-26T10:11:05.242Z,18.90
2022-10-26T10:13:35.788Z,17.60
2022-10-26T10:16:05.571Z,17.05
2022-10-26T10:18:33.874Z,18.63
2022-10-26T10:21:01.851Z,18.60
2022-10-26T10:23:35.582Z,18.00
2022-10-26T10:26:11.045Z,17.45
2022-10-26T10:28:40.675Z,18.05
2022-10-26T10:31:32.630Z,18.67
2022-10-26T10:34:00.125Z,18.80
2022-10-26T10:36:30.428Z,18.50
2022-10-26T10:38:58.430Z,18.00
2022-10-26T10:41:30.920Z,19.98
2022-10-26T10:44:23.697Z,19.58
2022-10-26T10:46:59.611Z,17.75
2022-10-26T10:49:29.272Z,21.13
2022-10-26T10:51:57.588Z,18.70
2022-10-26T10:54:27.743Z,18.33
2022-10-26T10:57:03.441Z,16.73
2022-10-26T10:59:46.771Z,20.77
2022-10-26T11:02:39.233Z,20.60
2022-10-26T11:05:27.303Z,16.77
2022-10-26T11:08:32.693Z,15.82
2022-10-26T11:11:10.496Z,17.63
2022-10-26T11:14:22.654Z,16.33
2022-10-26T11:17:08.367Z,18.10
2022-10-26T11:19:48.091Z,14.27
2022-10-26T11:22:20.703Z,14.25
2022-10-26T11:25:11.875Z,12.95
2022-10-26T11:27:59.724Z,13.40
2022-10-26T11:30:30.737Z,14.82
2022-10-26T11:33:06.792Z,16.33
2022-10-26T11:35:53.323Z,14.73
2022-10-26T11:38:45.650Z,14.32
2022-10-26T11:41:43.338Z,17.80
2022-10-26T11:44:34.872Z,13.73
2022-10-26T11:47:16.133Z,19.02
2022-10-26T11:50:17.101Z,15.73
2022-10-26T11:52:51.804Z,11.90
2022-10-26T11:55:22.654Z,11.90
2022-10-26T11:57:54.088Z,13.13
2022-10-26T12:00:22.820Z,13.70
2022-10-26T12:03:01.098Z,14.15
2022-10-26T12:05:40.568Z,10.48
2022-10-26T12:08:16.292Z,12.20
2022-10-26T12:10:50.475Z,12.57
2022-10-26T12:13:27.439Z,11.68
2022-10-26T12:16:13.633Z,13.52
2022-10-26T12:19:05.063Z,14.85
2022-10-26T12:21:34.388Z,12.82
2022-10-26T12:24:23.922Z,13.85
2022-10-26T12:26:52.731Z,14.05
2022-10-26T12:29:29.011Z,13.88
2022-10-26T12:31:56.912Z,13.05
2022-10-26T12:34:48.387Z,13.82
2022-10-26T12:37:37.112Z,11.95
2022-10-26T12:40:33.128Z,17.33
2022-10-26T12:43:15.674Z,11.80
2022-10-26T12:45:47.666Z,12.20
2022-10-26T12:48:38.896Z,11.23
2022-10-26T12:51:22.293Z,12.90
2022-10-26T12:54:10.118Z,13.10
2022-10-26T12:56:51.930Z,14.77
2022-10-26T12:59:42.384Z,12.43
2022-10-26T13:02:18.749Z,13.82
2022-10-26T13:05:23.798Z,13.00
2022-10-26T13:07:51.827Z,13.52
2022-10-26T13:10:22.902Z,14.80
2022-10-26T13:12:56.512Z,17.02
2022-10-26T13:15:37.860Z,16.52
2022-10-26T13:18:13.678Z,14.60
2022-10-26T13:21:07.280Z,15.00
2022-10-26T13:23:39.353Z,14.70
2022-10-26T13:26:09.499Z,16.30
2022-10-26T13:28:40.303Z,14.70
2022-10-26T13:31:14.037Z,17.70
2022-10-26T13:33:44.197Z,16.85
2022-10-26T13:36:23.481Z,16.88
2022-10-26T13:38:51.412Z,15.63
2022-10-26T13:41:29.520Z,23.25
2022-10-26T13:44:02.865Z,19.08
2022-10-26T13:46:34.736Z,17.60
2022-10-26T13:49:30.817Z,15.02
2022-10-26T13:52:02.114Z,15.80
2022-10-26T13:55:10.001Z,19.45
2022-10-26T13:57:42.199Z,18.88
2022-10-26T14:00:23.207Z,16.05
2022-10-26T14:02:50.882Z,16.27
2022-10-26T14:05:19.130Z,30.17
2022-10-26T14:07:57.344Z,34.00
2022-10-26T14:10:31.248Z,14.85
2022-10-26T14:12:59.340Z,19.35
2022-10-26T14:15:32.117Z,16.85
2022-10-26T14:18:01.833Z,26.63
2022-10-26T14:20:31.202Z,22.80
2022-10-26T14:22:59.096Z,33.88
2022-10-26T14:25:41.967Z,20.45
2022-10-26T14:28:25.040Z,19.90
2022-10-26T14:30:52.651Z,17.17
2022-10-26T14:33:27.584Z,16.50
2022-10-26T14:35:56.190Z,25.95
2022-10-26T14:38:30.124Z,14.80
2022-10-26T14:40:58.443Z,19.35
2022-10-26T14:43:26.963Z,17.25
2022-10-26T14:45:54.822Z,14.27
2022-10-26T14:48:35.672Z,14.45
2022-10-26T14:51:16.702Z,17.13
2022-10-26T14:53:56.267Z,17.73
2022-10-26T14:56:35.862Z,14.20
2022-10-26T14:59:21.986Z,15.75
2022-10-26T15:01:53.925Z,15.30
2022-10-26T15:04:38.396Z,17.55
2022-10-26T15:07:12.117Z,13.90
2022-10-26T15:09:50.265Z,20.23
2022-10-26T15:12:26.098Z,15.93
2022-10-26T15:14:54.141Z,17.65
2022-10-26T15:17:32.219Z,17.80
2022-10-26T15:20:05.673Z,12.77
2022-10-26T15:22:34.148Z,15.90
2022-10-26T15:25:06.031Z,15.57
2022-10-26T15:27:33.618Z,22.60
2022-10-26T15:30:21.952Z,15.90
2022-10-26T15:32:50.384Z,16.83
2022-10-26T15:35:18.066Z,15.48
2022-10-26T15:37:50.377Z,14.00
2022-10-26T15:40:18.740Z,18.23
2022-10-26T15:42:53.006Z,17.50
2022-10-26T15:45:23.412Z,14.75
2022-10-26T15:47:55.715Z,11.60
2022-10-26T15:50:26.637Z,12.30
2022-10-26T15:53:01.747Z,21.02
2022-10-26T15:55:30.731Z,14.60
2022-10-26T15:57:58.263Z,16.15
2022-10-26T16:00:25.760Z,14.77
2022-10-26T16:02:53.480Z,15.23
2022-10-26T16:05:21.230Z,13.00
2022-10-26T16:07:49.207Z,11.48
2022-10-26T16:10:23.860Z,14.55
2022-10-26T16:15:21.917Z,16.73
2022-10-26T16:17:50.302Z,16.42
2022-10-26T16:20:24.091Z,17.70
2022-10-26T16:22:52.869Z,21.67
2022-10-26T16:25:23.632Z,16.42
2022-10-26T16:27:52.240Z,18.77
2022-10-26T16:30:21.097Z,18.58
2022-10-26T16:32:48.972Z,16.10
2022-10-26T16:35:16.969Z,21.55
2022-10-26T16:37:46.013Z,22.73
2022-10-26T16:40:14.341Z,20.25
2022-10-26T16:42:44.579Z,16.58
2022-10-26T16:45:13.724Z,16.80
2022-10-26T16:47:41.695Z,18.85
2022-10-26T16:50:11.249Z,18.15
2022-10-26T16:52:39.245Z,20.17
2022-10-26T16:55:08.770Z,19.15
2022-10-26T16:57:37.392Z,20.05
2022-10-26T17:00:06.635Z,17.25
2022-10-26T17:02:34.904Z,20.67
2022-10-26T17:05:06.033Z,15.02
2022-10-26T17:07:35.344Z,16.98
2022-10-26T17:10:03.929Z,17.10
2022-10-26T17:12:31.937Z,16.20
2022-10-26T17:15:00.701Z,14.88
2022-10-26T17:17:28.532Z,13.15
2022-10-26T17:19:56.429Z,12.05
2022-10-26T17:22:24.224Z,14.43
2022-10-26T17:24:51.987Z,12.82
2022-10-26T17:27:20.365Z,14.15
2022-10-26T17:29:48.300Z,13.95
2022-10-26T17:32:18.886Z,14.27
2022-10-26T17:34:46.743Z,11.52
2022-10-26T17:37:14.622Z,14.52
2022-10-26T17:39:42.375Z,12.85
2022-10-26T17:42:10.576Z,13.48
2022-10-26T17:44:39.174Z,15.45
2022-10-26T17:47:06.939Z,15.20
2022-10-26T17:49:36.228Z,14.45
2022-10-26T17:52:06.152Z,12.50
2022-10-26T17:54:35.188Z,11.73
2022-10-26T17:57:03.320Z,13.65
2022-10-26T17:59:31.393Z,13.00
2022-10-26T18:01:59.092Z,13.23
2022-10-26T18:04:27.090Z,11.52
2022-10-26T18:06:54.611Z,12.98
2022-10-26T18:09:22.513Z,12.77
2022-10-26T18:11:53.441Z,13.80
2022-10-26T18:14:23.795Z,16.23
2022-10-26T18:16:51.693Z,23.85
2022-10-26T18:19:19.688Z,41.42
2022-10-26T18:21:47.190Z,23.70
2022-10-26T18:24:14.675Z,14.70
2022-10-26T18:26:42.434Z,12.45
2022-10-26T18:29:12.536Z,14.82
2022-10-26T18:31:40.746Z,13.52
2022-10-26T18:34:09.668Z,16.77
2022-10-26T18:39:10.467Z,25.05
2022-10-26T18:41:38.244Z,37.83
2022-10-26T18:44:06.563Z,50.22
2022-10-26T18:46:39.890Z,40.03
2022-10-26T18:49:09.664Z,28.95
2022-10-26T18:51:37.817Z,17.85
2022-10-26T18:54:05.561Z,15.75
2022-10-26T18:56:33.440Z,13.13
2022-10-26T18:59:01.611Z,16.23
2022-10-26T19:01:32.213Z,13.50
2022-10-26T19:04:01.482Z,16.48
2022-10-26T19:06:38.219Z,15.60
2022-10-26T19:09:08.037Z,13.00
2022-10-26T19:11:37.197Z,13.15
2022-10-26T19:14:05.328Z,36.03
2022-10-26T19:16:45.463Z,41.15
2022-10-26T19:19:16.260Z,25.23
2022-10-26T19:21:45.852Z,11.40
2022-10-26T19:24:20.110Z,13.68
2022-10-26T19:26:50.315Z,16.63
2022-10-26T19:29:19.542Z,16.73
2022-10-26T19:31:50.666Z,13.07
2022-10-26T19:34:18.766Z,13.27
2022-10-26T19:36:47.366Z,16.13
2022-10-26T19:39:16.983Z,18.90
2022-10-26T19:41:46.490Z,14.32
2022-10-26T19:44:15.443Z,16.52
2022-10-26T19:46:44.202Z,15.23
2022-10-26T19:49:17.534Z,15.50
2022-10-26T19:51:46.887Z,14.95
2022-10-26T19:54:14.751Z,16.63
2022-10-26T19:56:42.609Z,13.57
2022-10-26T19:59:12.073Z,15.95
2022-10-26T20:01:40.220Z,16.45
2022-10-26T20:04:08.174Z,15.95
2022-10-26T20:06:35.999Z,17.92
2022-10-26T20:09:03.950Z,17.60
2022-10-26T20:11:32.417Z,15.00
2022-10-26T20:14:00.419Z,14.10
2022-10-26T20:16:28.172Z,13.65
2022-10-26T20:19:00.820Z,15.30
2022-10-26T20:21:29.150Z,15.85
2022-10-26T20:23:56.929Z,16.25
2022-10-26T20:26:28.290Z,15.30
2022-10-26T20:28:56.397Z,14.85
2022-10-26T20:31:24.275Z,14.35
2022-10-26T20:33:55.062Z,16.95
2022-10-26T20:36:23.223Z,14.07
2022-10-26T20:38:51.271Z,13.65
2022-10-26T20:41:19.695Z,16.70
2022-10-26T20:43:47.787Z,15.73
2022-10-26T20:46:23.497Z,15.70
2022-10-26T20:48:52.476Z,17.02
2022-10-26T20:52:15.682Z,16.35
2022-10-26T20:54:48.517Z,16.45
2022-10-26T20:57:19.509Z,16.33
2022-10-26T20:59:50.607Z,17.45
2022-10-26T21:02:18.136Z,13.05
2022-10-26T21:04:45.574Z,14.63
2022-10-26T21:07:13.110Z,16.05
2022-10-26T21:09:40.710Z,15.75
2022-10-26T21:12:08.172Z,19.60
2022-10-26T21:14:40.726Z,16.13
2022-10-26T21:17:09.487Z,18.33
2022-10-26T21:19:37.061Z,16.40
2022-10-26T21:22:04.645Z,16.13
2022-10-26T21:24:33.242Z,17.15
2022-10-26T21:27:00.833Z,16.98
2022-10-26T21:29:28.520Z,15.95
2022-10-26T21:31:56.088Z,16.33
2022-10-26T21:34:23.644Z,13.90
2022-10-26T21:36:51.140Z,15.80
2022-10-26T21:39:18.615Z,18.33
2022-10-26T21:41:46.100Z,18.08
2022-10-26T21:44:32.689Z,18.52
2022-10-26T21:47:01.010Z,18.80
2022-10-26T21:49:28.516Z,22.83
2022-10-26T21:51:55.977Z,21.50
2022-10-26T21:54:23.398Z,23.25
2022-10-26T21:56:50.926Z,21.15
2022-10-26T21:59:18.475Z,19.23
2022-10-26T22:01:45.995Z,17.98
2022-10-26T22:04:13.693Z,19.90
2022-10-26T22:06:41.206Z,18.45
2022-10-26T22:09:08.707Z,18.27
2022-10-26T22:11:36.228Z,17.90
2022-10-26T22:14:03.721Z,20.35
2022-10-26T22:16:32.887Z,21.55
2022-10-26T22:19:06.456Z,21.50
2022-10-26T22:21:39.413Z,22.27
2022-10-26T22:24:07.859Z,21.23
2022-10-26T22:26:36.826Z,22.90
2022-10-26T22:29:05.229Z,18.75
2022-10-26T22:31:36.800Z,19.40
2022-10-26T22:34:07.861Z,22.60
2022-10-26T22:36:36.131Z,18.75
2022-10-26T22:39:04.046Z,23.75
2022-10-26T22:41:31.758Z,35.00
2022-10-26T22:43:59.333Z,30.92
2022-10-26T22:46:28.174Z,26.10
2022-10-26T22:49:00.507Z,23.75
2022-10-26T22:51:31.135Z,27.80
2022-10-26T22:54:00.156Z,33.92
2022-10-26T22:56:29.405Z,35.53
2022-10-26T22:58:57.055Z,39.53
2022-10-26T23:01:29.134Z,43.90
2022-10-26T23:03:56.790Z,43.78
2022-10-26T23:06:27.623Z,50.28
2022-10-26T23:08:55.514Z,47.95
2022-10-26T23:11:24.807Z,49.17
2022-10-26T23:14:02.947Z,46.90
2022-10-26T23:16:31.111Z,43.90
2022-10-26T23:18:59.649Z,44.95
2022-10-26T23:21:29.264Z,45.70
2022-10-26T23:23:57.478Z,42.55
2022-10-26T23:26:25.247Z,42.03
2022-10-26T23:28:52.877Z,41.80
2022-10-26T23:31:23.362Z,38.83
2022-10-26T23:33:51.966Z,48.33
2022-10-26T23:36:20.126Z,46.25
2022-10-26T23:38:48.341Z,44.92
2022-10-26T23:41:16.089Z,41.78
2022-10-26T23:43:43.574Z,39.03
2022-10-26T23:46:11.115Z,38.58
2022-10-26T23:48:38.911Z,35.35
2022-10-26T23:51:06.523Z,35.65
2022-10-26T23:53:34.467Z,34.03
2022-10-26T23:56:02.155Z,34.75
2022-10-26T23:58:29.733Z,28.55
